sensor_id;sensor_type;location;lat;lon;timestamp;P1;durP1;ratioP1;P2;durP2;ratioP2
33900;SDS011;20193;49.810;6.418;2022-07-15T00:00:18;4.78;;;2.92;;
33900;SDS011;20193;49.810;6.418;2022-07-15T00:02:44;6.07;;;3.50;;
33900;SDS011;20193;49.810;6.418;2022-07-15T00:05:10;3.67;;;3.30;;
33900;SDS011;20193;49.810;6.418;2022-07-15T00:07:36;3.85;;;3.20;;
33900;SDS011;20193;49.810;6.418;2022-07-15T00:10:02;3.60;;;3.30;;
33900;SDS011;20193;49.810;6.418;2022-07-15T00:12:51;3.97;;;3.58;;
33900;SDS011;20193;49.810;6.418;2022-07-15T00:15:19;3.80;;;3.50;;
33900;SDS011;20193;49.810;6.418;2022-07-15T00:17:46;4.03;;;3.60;;
33900;SDS011;20193;49.810;6.418;2022-07-15T00:20:13;5.85;;;3.72;;
33900;SDS011;20193;49.810;6.418;2022-07-15T00:22:39;4.00;;;3.60;;
33900;SDS011;20193;49.810;6.418;2022-07-15T00:25:06;4.00;;;3.60;;
33900;SDS011;20193;49.810;6.418;2022-07-15T00:27:32;3.97;;;3.42;;
33900;SDS011;20193;49.810;6.418;2022-07-15T00:29:57;6.63;;;4.03;;
33900;SDS011;20193;49.810;6.418;2022-07-15T00:32:23;4.95;;;4.45;;
33900;SDS011;20193;49.810;6.418;2022-07-15T00:34:49;6.55;;;3.95;;
33900;SDS011;20193;49.810;6.418;2022-07-15T00:37:16;4.03;;;3.63;;
33900;SDS011;20193;49.810;6.418;2022-07-15T00:39:42;4.22;;;3.58;;
33900;SDS011;20193;49.810;6.418;2022-07-15T00:42:11;4.85;;;4.10;;
33900;SDS011;20193;49.810;6.418;2022-07-15T00:44:57;5.88;;;3.90;;
33900;SDS011;20193;49.810;6.418;2022-07-15T00:47:23;5.22;;;3.90;;
33900;SDS011;20193;49.810;6.418;2022-07-15T00:49:55;6.20;;;4.20;;
33900;SDS011;20193;49.810;6.418;2022-07-15T00:52:21;5.22;;;3.67;;
33900;SDS011;20193;49.810;6.418;2022-07-15T00:54:50;4.85;;;4.03;;
33900;SDS011;20193;49.810;6.418;2022-07-15T00:57:17;4.63;;;3.40;;
33900;SDS011;20193;49.810;6.418;2022-07-15T00:59:43;3.95;;;3.65;;
33900;SDS011;20193;49.810;6.418;2022-07-15T01:02:11;4.20;;;3.80;;
33900;SDS011;20193;49.810;6.418;2022-07-15T01:04:38;4.35;;;3.95;;
33900;SDS011;20193;49.810;6.418;2022-07-15T01:07:04;4.78;;;3.80;;
33900;SDS011;20193;49.810;6.418;2022-07-15T01:09:30;5.75;;;4.18;;
33900;SDS011;20193;49.810;6.418;2022-07-15T01:11:56;3.75;;;3.30;;
33900;SDS011;20193;49.810;6.418;2022-07-15T01:14:21;4.20;;;3.65;;
33900;SDS011;20193;49.810;6.418;2022-07-15T01:16:47;3.40;;;3.05;;
33900;SDS011;20193;49.810;6.418;2022-07-15T01:19:13;5.50;;;3.50;;
33900;SDS011;20193;49.810;6.418;2022-07-15T01:21:39;5.95;;;4.15;;
33900;SDS011;20193;49.810;6.418;2022-07-15T01:24:04;4.47;;;3.92;;
33900;SDS011;20193;49.810;6.418;2022-07-15T01:26:30;3.97;;;3.58;;
33900;SDS011;20193;49.810;6.418;2022-07-15T01:28:56;7.07;;;4.30;;
33900;SDS011;20193;49.810;6.418;2022-07-15T01:31:21;4.90;;;4.20;;
33900;SDS011;20193;49.810;6.418;2022-07-15T01:33:47;6.95;;;4.47;;
33900;SDS011;20193;49.810;6.418;2022-07-15T01:36:13;4.28;;;3.85;;
33900;SDS011;20193;49.810;6.418;2022-07-15T01:38:38;5.22;;;3.72;;
33900;SDS011;20193;49.810;6.418;2022-07-15T01:41:04;5.07;;;3.58;;
33900;SDS011;20193;49.810;6.418;2022-07-15T01:43:30;5.07;;;3.50;;
33900;SDS011;20193;49.810;6.418;2022-07-15T01:45:56;4.80;;;3.20;;
33900;SDS011;20193;49.810;6.418;2022-07-15T01:48:21;3.75;;;3.45;;
33900;SDS011;20193;49.810;6.418;2022-07-15T01:51:05;4.18;;;3.75;;
33900;SDS011;20193;49.810;6.418;2022-07-15T01:53:31;5.18;;;3.88;;
33900;SDS011;20193;49.810;6.418;2022-07-15T01:55:58;4.78;;;3.88;;
33900;SDS011;20193;49.810;6.418;2022-07-15T01:58:23;5.35;;;4.18;;
33900;SDS011;20193;49.810;6.418;2022-07-15T02:00:49;5.45;;;4.40;;
33900;SDS011;20193;49.810;6.418;2022-07-15T02:03:15;4.88;;;3.53;;
33900;SDS011;20193;49.810;6.418;2022-07-15T02:05:41;6.13;;;4.20;;
33900;SDS011;20193;49.810;6.418;2022-07-15T02:08:07;4.90;;;4.32;;
33900;SDS011;20193;49.810;6.418;2022-07-15T02:10:36;5.78;;;4.85;;
33900;SDS011;20193;49.810;6.418;2022-07-15T02:13:11;5.35;;;4.57;;
33900;SDS011;20193;49.810;6.418;2022-07-15T02:15:38;4.65;;;4.18;;
33900;SDS011;20193;49.810;6.418;2022-07-15T02:18:04;6.50;;;4.50;;
33900;SDS011;20193;49.810;6.418;2022-07-15T02:20:30;4.40;;;4.00;;
33900;SDS011;20193;49.810;6.418;2022-07-15T02:22:56;5.22;;;3.75;;
33900;SDS011;20193;49.810;6.418;2022-07-15T02:25:25;5.30;;;4.60;;
33900;SDS011;20193;49.810;6.418;2022-07-15T02:27:56;4.20;;;3.80;;
33900;SDS011;20193;49.810;6.418;2022-07-15T02:30:24;4.00;;;3.53;;
33900;SDS011;20193;49.810;6.418;2022-07-15T02:32:50;4.85;;;3.35;;
33900;SDS011;20193;49.810;6.418;2022-07-15T02:35:16;4.82;;;3.38;;
33900;SDS011;20193;49.810;6.418;2022-07-15T02:37:42;4.25;;;3.85;;
33900;SDS011;20193;49.810;6.418;2022-07-15T02:40:09;6.15;;;3.83;;
33900;SDS011;20193;49.810;6.418;2022-07-15T02:42:35;3.83;;;3.53;;
33900;SDS011;20193;49.810;6.418;2022-07-15T02:45:01;3.42;;;3.13;;
33900;SDS011;20193;49.810;6.418;2022-07-15T02:47:27;4.60;;;3.65;;
33900;SDS011;20193;49.810;6.418;2022-07-15T02:49:52;4.63;;;4.20;;
33900;SDS011;20193;49.810;6.418;2022-07-15T02:52:18;4.40;;;4.10;;
33900;SDS011;20193;49.810;6.418;2022-07-15T02:54:44;4.32;;;4.03;;
33900;SDS011;20193;49.810;6.418;2022-07-15T02:57:09;4.88;;;4.47;;
33900;SDS011;20193;49.810;6.418;2022-07-15T02:59:35;4.70;;;4.25;;
33900;SDS011;20193;49.810;6.418;2022-07-15T03:02:01;4.90;;;4.60;;
33900;SDS011;20193;49.810;6.418;2022-07-15T03:04:26;4.70;;;4.40;;
33900;SDS011;20193;49.810;6.418;2022-07-15T03:06:52;4.07;;;3.78;;
33900;SDS011;20193;49.810;6.418;2022-07-15T03:09:18;4.30;;;3.90;;
33900;SDS011;20193;49.810;6.418;2022-07-15T03:11:43;6.15;;;4.05;;
33900;SDS011;20193;49.810;6.418;2022-07-15T03:14:09;4.55;;;4.25;;
33900;SDS011;20193;49.810;6.418;2022-07-15T03:16:35;4.72;;;3.80;;
33900;SDS011;20193;49.810;6.418;2022-07-15T03:19:01;3.90;;;3.70;;
33900;SDS011;20193;49.810;6.418;2022-07-15T03:21:27;5.18;;;4.30;;
33900;SDS011;20193;49.810;6.418;2022-07-15T03:23:52;4.95;;;4.55;;
33900;SDS011;20193;49.810;6.418;2022-07-15T03:26:19;4.72;;;4.30;;
33900;SDS011;20193;49.810;6.418;2022-07-15T03:28:45;5.45;;;5.00;;
33900;SDS011;20193;49.810;6.418;2022-07-15T03:31:11;5.07;;;4.68;;
33900;SDS011;20193;49.810;6.418;2022-07-15T03:33:37;5.57;;;5.10;;
33900;SDS011;20193;49.810;6.418;2022-07-15T03:36:03;5.35;;;4.80;;
33900;SDS011;20193;49.810;6.418;2022-07-15T03:38:30;4.90;;;4.50;;
33900;SDS011;20193;49.810;6.418;2022-07-15T03:40:56;5.30;;;4.90;;
33900;SDS011;20193;49.810;6.418;2022-07-15T03:43:22;5.22;;;4.93;;
33900;SDS011;20193;49.810;6.418;2022-07-15T03:45:52;5.28;;;4.78;;
33900;SDS011;20193;49.810;6.418;2022-07-15T03:48:18;5.50;;;4.78;;
33900;SDS011;20193;49.810;6.418;2022-07-15T03:50:43;5.00;;;4.60;;
33900;SDS011;20193;49.810;6.418;2022-07-15T03:53:09;6.22;;;5.82;;
33900;SDS011;20193;49.810;6.418;2022-07-15T03:55:35;5.22;;;4.90;;
33900;SDS011;20193;49.810;6.418;2022-07-15T03:58:02;5.38;;;4.97;;
33900;SDS011;20193;49.810;6.418;2022-07-15T04:00:28;5.57;;;5.15;;
33900;SDS011;20193;49.810;6.418;2022-07-15T04:02:54;6.38;;;5.25;;
33900;SDS011;20193;49.810;6.418;2022-07-15T04:05:20;5.88;;;5.32;;
33900;SDS011;20193;49.810;6.418;2022-07-15T04:07:46;6.38;;;5.32;;
33900;SDS011;20193;49.810;6.418;2022-07-15T04:10:12;5.72;;;5.22;;
33900;SDS011;20193;49.810;6.418;2022-07-15T04:12:39;5.70;;;5.10;;
33900;SDS011;20193;49.810;6.418;2022-07-15T04:15:05;8.07;;;5.60;;
33900;SDS011;20193;49.810;6.418;2022-07-15T04:17:30;7.18;;;5.30;;
33900;SDS011;20193;49.810;6.418;2022-07-15T04:19:56;5.53;;;5.13;;
33900;SDS011;20193;49.810;6.418;2022-07-15T04:22:22;6.00;;;5.40;;
33900;SDS011;20193;49.810;6.418;2022-07-15T04:24:47;5.60;;;5.10;;
33900;SDS011;20193;49.810;6.418;2022-07-15T04:27:13;8.57;;;4.85;;
33900;SDS011;20193;49.810;6.418;2022-07-15T04:29:39;5.50;;;5.10;;
33900;SDS011;20193;49.810;6.418;2022-07-15T04:32:04;5.60;;;5.10;;
33900;SDS011;20193;49.810;6.418;2022-07-15T04:34:30;5.00;;;4.65;;
33900;SDS011;20193;49.810;6.418;2022-07-15T04:36:56;4.78;;;4.35;;
33900;SDS011;20193;49.810;6.418;2022-07-15T04:39:21;6.72;;;3.97;;
33900;SDS011;20193;49.810;6.418;2022-07-15T04:41:47;6.93;;;4.15;;
33900;SDS011;20193;49.810;6.418;2022-07-15T04:44:15;5.15;;;4.72;;
33900;SDS011;20193;49.810;6.418;2022-07-15T04:46:41;5.75;;;4.07;;
33900;SDS011;20193;49.810;6.418;2022-07-15T04:49:06;4.82;;;4.13;;
33900;SDS011;20193;49.810;6.418;2022-07-15T04:51:50;4.93;;;4.13;;
33900;SDS011;20193;49.810;6.418;2022-07-15T04:54:16;4.00;;;3.70;;
33900;SDS011;20193;49.810;6.418;2022-07-15T04:56:42;4.35;;;3.97;;
33900;SDS011;20193;49.810;6.418;2022-07-15T04:59:07;5.75;;;3.75;;
33900;SDS011;20193;49.810;6.418;2022-07-15T05:01:33;6.75;;;3.70;;
33900;SDS011;20193;49.810;6.418;2022-07-15T05:03:58;4.93;;;3.72;;
33900;SDS011;20193;49.810;6.418;2022-07-15T05:06:24;6.43;;;4.28;;
33900;SDS011;20193;49.810;6.418;2022-07-15T05:08:50;4.68;;;3.50;;
33900;SDS011;20193;49.810;6.418;2022-07-15T05:11:16;4.93;;;3.58;;
33900;SDS011;20193;49.810;6.418;2022-07-15T05:13:41;5.82;;;3.38;;
33900;SDS011;20193;49.810;6.418;2022-07-15T05:16:07;6.80;;;4.15;;
33900;SDS011;20193;49.810;6.418;2022-07-15T05:18:33;4.30;;;3.80;;
33900;SDS011;20193;49.810;6.418;2022-07-15T05:21:00;6.65;;;3.50;;
33900;SDS011;20193;49.810;6.418;2022-07-15T05:23:25;5.57;;;3.42;;
33900;SDS011;20193;49.810;6.418;2022-07-15T05:25:51;3.80;;;3.50;;
33900;SDS011;20193;49.810;6.418;2022-07-15T05:28:17;6.05;;;3.25;;
33900;SDS011;20193;49.810;6.418;2022-07-15T05:30:42;5.00;;;3.28;;
33900;SDS011;20193;49.810;6.418;2022-07-15T05:33:08;3.05;;;2.80;;
33900;SDS011;20193;49.810;6.418;2022-07-15T05:35:34;5.40;;;3.85;;
33900;SDS011;20193;49.810;6.418;2022-07-15T05:37:59;5.97;;;3.38;;
33900;SDS011;20193;49.810;6.418;2022-07-15T05:40:25;6.53;;;3.35;;
33900;SDS011;20193;49.810;6.418;2022-07-15T05:42:51;7.65;;;3.00;;
33900;SDS011;20193;49.810;6.418;2022-07-15T05:45:16;3.90;;;2.70;;
33900;SDS011;20193;49.810;6.418;2022-07-15T05:47:51;6.97;;;3.28;;
33900;SDS011;20193;49.810;6.418;2022-07-15T05:50:18;3.95;;;2.97;;
33900;SDS011;20193;49.810;6.418;2022-07-15T05:52:44;4.28;;;2.72;;
33900;SDS011;20193;49.810;6.418;2022-07-15T05:55:10;6.40;;;3.38;;
33900;SDS011;20193;49.810;6.418;2022-07-15T05:57:36;5.10;;;3.03;;
33900;SDS011;20193;49.810;6.418;2022-07-15T06:00:03;4.30;;;3.30;;
33900;SDS011;20193;49.810;6.418;2022-07-15T06:02:30;5.50;;;2.78;;
33900;SDS011;20193;49.810;6.418;2022-07-15T06:04:56;4.43;;;2.92;;
33900;SDS011;20193;49.810;6.418;2022-07-15T06:07:22;5.10;;;3.15;;
33900;SDS011;20193;49.810;6.418;2022-07-15T06:09:48;8.70;;;3.38;;
33900;SDS011;20193;49.810;6.418;2022-07-15T06:12:16;5.00;;;3.00;;
33900;SDS011;20193;49.810;6.418;2022-07-15T06:14:42;8.25;;;3.53;;
33900;SDS011;20193;49.810;6.418;2022-07-15T06:17:08;3.85;;;3.22;;
33900;SDS011;20193;49.810;6.418;2022-07-15T06:19:33;3.60;;;3.30;;
33900;SDS011;20193;49.810;6.418;2022-07-15T06:21:59;3.72;;;3.05;;
33900;SDS011;20193;49.810;6.418;2022-07-15T06:24:25;3.80;;;3.08;;
33900;SDS011;20193;49.810;6.418;2022-07-15T06:26:51;8.45;;;4.80;;
33900;SDS011;20193;49.810;6.418;2022-07-15T06:29:17;4.43;;;3.38;;
33900;SDS011;20193;49.810;6.418;2022-07-15T06:31:43;7.00;;;3.80;;
33900;SDS011;20193;49.810;6.418;2022-07-15T06:34:08;5.53;;;3.22;;
33900;SDS011;20193;49.810;6.418;2022-07-15T06:36:34;6.60;;;3.70;;
33900;SDS011;20193;49.810;6.418;2022-07-15T06:39:01;7.22;;;3.83;;
33900;SDS011;20193;49.810;6.418;2022-07-15T06:41:27;6.45;;;3.78;;
33900;SDS011;20193;49.810;6.418;2022-07-15T06:43:52;4.85;;;4.00;;
33900;SDS011;20193;49.810;6.418;2022-07-15T06:46:18;6.15;;;3.60;;
33900;SDS011;20193;49.810;6.418;2022-07-15T06:48:43;7.95;;;4.03;;
33900;SDS011;20193;49.810;6.418;2022-07-15T06:51:09;6.38;;;3.67;;
33900;SDS011;20193;49.810;6.418;2022-07-15T06:53:36;5.60;;;3.63;;
33900;SDS011;20193;49.810;6.418;2022-07-15T06:56:02;3.60;;;3.22;;
33900;SDS011;20193;49.810;6.418;2022-07-15T06:58:28;7.65;;;4.03;;
33900;SDS011;20193;49.810;6.418;2022-07-15T07:00:54;15.90;;;5.00;;
33900;SDS011;20193;49.810;6.418;2022-07-15T07:03:19;6.00;;;4.03;;
33900;SDS011;20193;49.810;6.418;2022-07-15T07:05:45;8.25;;;5.05;;
33900;SDS011;20193;49.810;6.418;2022-07-15T07:08:11;4.47;;;3.97;;
33900;SDS011;20193;49.810;6.418;2022-07-15T07:10:37;5.13;;;4.38;;
33900;SDS011;20193;49.810;6.418;2022-07-15T07:13:02;5.55;;;4.68;;
33900;SDS011;20193;49.810;6.418;2022-07-15T07:15:28;5.63;;;5.13;;
33900;SDS011;20193;49.810;6.418;2022-07-15T07:17:54;9.43;;;5.10;;
33900;SDS011;20193;49.810;6.418;2022-07-15T07:20:19;7.93;;;5.10;;
33900;SDS011;20193;49.810;6.418;2022-07-15T07:22:45;5.60;;;4.95;;
33900;SDS011;20193;49.810;6.418;2022-07-15T07:25:11;6.30;;;4.60;;
33900;SDS011;20193;49.810;6.418;2022-07-15T07:27:36;10.65;;;5.80;;
33900;SDS011;20193;49.810;6.418;2022-07-15T07:30:02;9.30;;;5.10;;
33900;SDS011;20193;49.810;6.418;2022-07-15T07:32:29;6.32;;;4.45;;
33900;SDS011;20193;49.810;6.418;2022-07-15T07:34:56;4.95;;;4.30;;
33900;SDS011;20193;49.810;6.418;2022-07-15T07:37:22;6.13;;;3.67;;
33900;SDS011;20193;49.810;6.418;2022-07-15T07:39:48;8.85;;;4.00;;
33900;SDS011;20193;49.810;6.418;2022-07-15T07:42:16;6.07;;;4.38;;
33900;SDS011;20193;49.810;6.418;2022-07-15T07:44:42;12.15;;;5.45;;
33900;SDS011;20193;49.810;6.418;2022-07-15T07:47:08;7.90;;;4.47;;
33900;SDS011;20193;49.810;6.418;2022-07-15T07:49:33;5.75;;;4.03;;
33900;SDS011;20193;49.810;6.418;2022-07-15T07:51:59;5.00;;;3.60;;
33900;SDS011;20193;49.810;6.418;2022-07-15T07:54:25;5.05;;;3.55;;
33900;SDS011;20193;49.810;6.418;2022-07-15T07:56:51;4.72;;;3.03;;
33900;SDS011;20193;49.810;6.418;2022-07-15T07:59:17;4.55;;;3.67;;
33900;SDS011;20193;49.810;6.418;2022-07-15T08:01:42;5.88;;;3.33;;
33900;SDS011;20193;49.810;6.418;2022-07-15T08:04:08;6.97;;;3.53;;
33900;SDS011;20193;49.810;6.418;2022-07-15T08:06:34;5.72;;;3.22;;
33900;SDS011;20193;49.810;6.418;2022-07-15T08:09:00;5.45;;;3.75;;
33900;SDS011;20193;49.810;6.418;2022-07-15T08:11:25;6.18;;;3.45;;
33900;SDS011;20193;49.810;6.418;2022-07-15T08:13:51;8.40;;;3.65;;
33900;SDS011;20193;49.810;6.418;2022-07-15T08:16:18;6.50;;;3.70;;
33900;SDS011;20193;49.810;6.418;2022-07-15T08:18:43;5.00;;;2.88;;
33900;SDS011;20193;49.810;6.418;2022-07-15T08:21:09;5.75;;;3.35;;
33900;SDS011;20193;49.810;6.418;2022-07-15T08:23:35;5.65;;;3.10;;
33900;SDS011;20193;49.810;6.418;2022-07-15T08:26:01;6.53;;;3.33;;
33900;SDS011;20193;49.810;6.418;2022-07-15T08:28:26;6.15;;;3.10;;
33900;SDS011;20193;49.810;6.418;2022-07-15T08:30:52;5.38;;;3.35;;
33900;SDS011;20193;49.810;6.418;2022-07-15T08:33:17;3.95;;;3.33;;
33900;SDS011;20193;49.810;6.418;2022-07-15T08:35:43;4.97;;;3.03;;
33900;SDS011;20193;49.810;6.418;2022-07-15T08:38:09;4.32;;;3.10;;
33900;SDS011;20193;49.810;6.418;2022-07-15T08:40:36;7.03;;;2.80;;
33900;SDS011;20193;49.810;6.418;2022-07-15T08:43:09;5.28;;;3.40;;
33900;SDS011;20193;49.810;6.418;2022-07-15T08:45:37;5.85;;;3.17;;
33900;SDS011;20193;49.810;6.418;2022-07-15T08:48:07;4.63;;;3.42;;
33900;SDS011;20193;49.810;6.418;2022-07-15T08:50:33;5.82;;;3.35;;
33900;SDS011;20193;49.810;6.418;2022-07-15T08:53:02;5.85;;;3.53;;
33900;SDS011;20193;49.810;6.418;2022-07-15T08:55:29;11.55;;;3.72;;
33900;SDS011;20193;49.810;6.418;2022-07-15T08:57:54;4.43;;;3.00;;
33900;SDS011;20193;49.810;6.418;2022-07-15T09:00:21;6.50;;;3.45;;
33900;SDS011;20193;49.810;6.418;2022-07-15T09:02:53;6.65;;;3.55;;
33900;SDS011;20193;49.810;6.418;2022-07-15T09:08:12;10.85;;;3.22;;
33900;SDS011;20193;49.810;6.418;2022-07-15T09:10:41;5.63;;;3.40;;
33900;SDS011;20193;49.810;6.418;2022-07-15T09:13:32;5.25;;;3.47;;
33900;SDS011;20193;49.810;6.418;2022-07-15T09:16:11;4.95;;;3.33;;
33900;SDS011;20193;49.810;6.418;2022-07-15T09:18:44;8.77;;;3.42;;
33900;SDS011;20193;49.810;6.418;2022-07-15T09:21:17;11.38;;;3.47;;
33900;SDS011;20193;49.810;6.418;2022-07-15T09:23:45;4.22;;;2.58;;
33900;SDS011;20193;49.810;6.418;2022-07-15T09:29:01;3.72;;;2.72;;
33900;SDS011;20193;49.810;6.418;2022-07-15T09:31:48;5.30;;;2.80;;
33900;SDS011;20193;49.810;6.418;2022-07-15T09:34:58;3.83;;;3.45;;
33900;SDS011;20193;49.810;6.418;2022-07-15T09:37:25;3.13;;;2.83;;
33900;SDS011;20193;49.810;6.418;2022-07-15T09:39:55;4.22;;;2.83;;
33900;SDS011;20193;49.810;6.418;2022-07-15T09:42:21;4.20;;;3.30;;
33900;SDS011;20193;49.810;6.418;2022-07-15T09:44:51;3.60;;;2.80;;
33900;SDS011;20193;49.810;6.418;2022-07-15T09:47:18;4.60;;;3.42;;
33900;SDS011;20193;49.810;6.418;2022-07-15T09:49:44;6.65;;;2.80;;
33900;SDS011;20193;49.810;6.418;2022-07-15T09:52:12;4.50;;;2.72;;
33900;SDS011;20193;49.810;6.418;2022-07-15T09:57:07;5.60;;;2.80;;
33900;SDS011;20193;49.810;6.418;2022-07-15T09:59:35;4.57;;;2.90;;
33900;SDS011;20193;49.810;6.418;2022-07-15T10:02:01;5.18;;;2.72;;
33900;SDS011;20193;49.810;6.418;2022-07-15T10:04:28;4.63;;;2.80;;
33900;SDS011;20193;49.810;6.418;2022-07-15T10:06:56;3.35;;;2.47;;
33900;SDS011;20193;49.810;6.418;2022-07-15T10:09:26;5.63;;;2.95;;
33900;SDS011;20193;49.810;6.418;2022-07-15T10:11:55;3.17;;;2.53;;
33900;SDS011;20193;49.810;6.418;2022-07-15T10:17:32;3.05;;;2.70;;
33900;SDS011;20193;49.810;6.418;2022-07-15T10:31:25;4.50;;;3.75;;
33900;SDS011;20193;49.810;6.418;2022-07-15T10:39:19;3.25;;;2.50;;
33900;SDS011;20193;49.810;6.418;2022-07-15T10:41:53;3.30;;;2.50;;
33900;SDS011;20193;49.810;6.418;2022-07-15T10:44:22;3.88;;;2.50;;
33900;SDS011;20193;49.810;6.418;2022-07-15T10:49:37;4.47;;;2.55;;
33900;SDS011;20193;49.810;6.418;2022-07-15T10:52:09;7.18;;;3.13;;
33900;SDS011;20193;49.810;6.418;2022-07-15T10:54:41;2.70;;;2.45;;
33900;SDS011;20193;49.810;6.418;2022-07-15T10:57:08;5.97;;;2.40;;
33900;SDS011;20193;49.810;6.418;2022-07-15T10:59:35;7.43;;;3.00;;
33900;SDS011;20193;49.810;6.418;2022-07-15T11:04:29;2.42;;;2.22;;
33900;SDS011;20193;49.810;6.418;2022-07-15T11:09:50;3.17;;;2.28;;
33900;SDS011;20193;49.810;6.418;2022-07-15T11:12:19;2.95;;;2.50;;
33900;SDS011;20193;49.810;6.418;2022-07-15T11:14:54;5.10;;;2.60;;
33900;SDS011;20193;49.810;6.418;2022-07-15T11:22:44;4.07;;;2.35;;
33900;SDS011;20193;49.810;6.418;2022-07-15T11:30:46;2.67;;;2.13;;
33900;SDS011;20193;49.810;6.418;2022-07-15T11:33:18;2.90;;;2.08;;
33900;SDS011;20193;49.810;6.418;2022-07-15T11:35:49;4.10;;;2.55;;
33900;SDS011;20193;49.810;6.418;2022-07-15T11:38:18;4.32;;;3.08;;
33900;SDS011;20193;49.810;6.418;2022-07-15T11:40:49;2.88;;;2.08;;
33900;SDS011;20193;49.810;6.418;2022-07-15T11:43:34;4.57;;;2.47;;
33900;SDS011;20193;49.810;6.418;2022-07-15T11:46:19;4.15;;;2.15;;
33900;SDS011;20193;49.810;6.418;2022-07-15T11:48:45;4.03;;;2.50;;
33900;SDS011;20193;49.810;6.418;2022-07-15T11:51:11;2.30;;;2.10;;
33900;SDS011;20193;49.810;6.418;2022-07-15T11:53:38;1.95;;;1.85;;
33900;SDS011;20193;49.810;6.418;2022-07-15T11:56:06;3.08;;;2.75;;
33900;SDS011;20193;49.810;6.418;2022-07-15T11:58:34;3.60;;;2.35;;
33900;SDS011;20193;49.810;6.418;2022-07-15T12:01:17;2.20;;;2.05;;
33900;SDS011;20193;49.810;6.418;2022-07-15T12:03:46;2.20;;;2.00;;
33900;SDS011;20193;49.810;6.418;2022-07-15T12:06:14;5.00;;;2.75;;
33900;SDS011;20193;49.810;6.418;2022-07-15T12:13:49;3.25;;;2.08;;
33900;SDS011;20193;49.810;6.418;2022-07-15T12:16:18;3.00;;;2.40;;
33900;SDS011;20193;49.810;6.418;2022-07-15T12:18:47;3.35;;;2.65;;
33900;SDS011;20193;49.810;6.418;2022-07-15T12:21:13;5.05;;;2.40;;
33900;SDS011;20193;49.810;6.418;2022-07-15T12:23:39;4.38;;;2.47;;
33900;SDS011;20193;49.810;6.418;2022-07-15T12:26:06;4.53;;;3.22;;
33900;SDS011;20193;49.810;6.418;2022-07-15T12:28:33;4.68;;;2.80;;
33900;SDS011;20193;49.810;6.418;2022-07-15T12:31:00;3.30;;;2.22;;
33900;SDS011;20193;49.810;6.418;2022-07-15T12:33:26;3.92;;;2.28;;
33900;SDS011;20193;49.810;6.418;2022-07-15T12:36:37;2.88;;;2.30;;
33900;SDS011;20193;49.810;6.418;2022-07-15T12:39:01;4.13;;;2.90;;
33900;SDS011;20193;49.810;6.418;2022-07-15T12:41:30;2.72;;;2.10;;
33900;SDS011;20193;49.810;6.418;2022-07-15T12:43:59;2.45;;;1.90;;
33900;SDS011;20193;49.810;6.418;2022-07-15T12:49:11;2.10;;;2.00;;
33900;SDS011;20193;49.810;6.418;2022-07-15T12:51:55;2.28;;;2.05;;
33900;SDS011;20193;49.810;6.418;2022-07-15T12:54:20;3.28;;;2.22;;
33900;SDS011;20193;49.810;6.418;2022-07-15T12:56:50;3.42;;;2.15;;
33900;SDS011;20193;49.810;6.418;2022-07-15T12:59:16;2.47;;;1.85;;
33900;SDS011;20193;49.810;6.418;2022-07-15T13:02:00;2.72;;;1.90;;
33900;SDS011;20193;49.810;6.418;2022-07-15T13:04:27;3.55;;;2.17;;
33900;SDS011;20193;49.810;6.418;2022-07-15T13:06:53;2.53;;;2.33;;
33900;SDS011;20193;49.810;6.418;2022-07-15T13:09:19;2.35;;;2.15;;
33900;SDS011;20193;49.810;6.418;2022-07-15T13:11:44;2.30;;;1.85;;
33900;SDS011;20193;49.810;6.418;2022-07-15T13:14:25;2.60;;;2.00;;
33900;SDS011;20193;49.810;6.418;2022-07-15T13:16:51;2.83;;;1.73;;
33900;SDS011;20193;49.810;6.418;2022-07-15T13:19:17;2.25;;;2.08;;
33900;SDS011;20193;49.810;6.418;2022-07-15T13:21:44;3.50;;;2.13;;
33900;SDS011;20193;49.810;6.418;2022-07-15T13:24:09;3.83;;;2.30;;
33900;SDS011;20193;49.810;6.418;2022-07-15T13:26:35;2.92;;;2.10;;
33900;SDS011;20193;49.810;6.418;2022-07-15T13:29:01;2.30;;;2.10;;
33900;SDS011;20193;49.810;6.418;2022-07-15T13:31:26;2.65;;;2.45;;
33900;SDS011;20193;49.810;6.418;2022-07-15T13:33:52;2.70;;;2.00;;
33900;SDS011;20193;49.810;6.418;2022-07-15T13:36:18;3.00;;;2.00;;
33900;SDS011;20193;49.810;6.418;2022-07-15T13:38:44;5.47;;;1.95;;
33900;SDS011;20193;49.810;6.418;2022-07-15T13:41:09;2.47;;;1.92;;
33900;SDS011;20193;49.810;6.418;2022-07-15T13:43:35;7.25;;;2.92;;
33900;SDS011;20193;49.810;6.418;2022-07-15T13:46:00;6.82;;;2.58;;
33900;SDS011;20193;49.810;6.418;2022-07-15T13:48:26;3.53;;;2.15;;
33900;SDS011;20193;49.810;6.418;2022-07-15T13:50:52;3.65;;;1.90;;
33900;SDS011;20193;49.810;6.418;2022-07-15T13:53:36;3.65;;;2.05;;
33900;SDS011;20193;49.810;6.418;2022-07-15T13:56:01;2.85;;;2.10;;
33900;SDS011;20193;49.810;6.418;2022-07-15T13:58:27;2.30;;;2.20;;
33900;SDS011;20193;49.810;6.418;2022-07-15T14:00:53;3.60;;;2.00;;
33900;SDS011;20193;49.810;6.418;2022-07-15T14:03:18;2.45;;;2.20;;
33900;SDS011;20193;49.810;6.418;2022-07-15T14:05:50;2.43;;;2.22;;
33900;SDS011;20193;49.810;6.418;2022-07-15T14:08:16;2.53;;;2.15;;
33900;SDS011;20193;49.810;6.418;2022-07-15T14:10:43;2.20;;;1.85;;
33900;SDS011;20193;49.810;6.418;2022-07-15T14:13:09;2.30;;;2.03;;
33900;SDS011;20193;49.810;6.418;2022-07-15T14:15:35;2.30;;;1.98;;
33900;SDS011;20193;49.810;6.418;2022-07-15T14:18:01;1.88;;;1.75;;
33900;SDS011;20193;49.810;6.418;2022-07-15T14:20:26;2.67;;;1.92;;
33900;SDS011;20193;49.810;6.418;2022-07-15T14:22:53;2.15;;;1.98;;
33900;SDS011;20193;49.810;6.418;2022-07-15T14:25:19;2.67;;;2.20;;
33900;SDS011;20193;49.810;6.418;2022-07-15T14:27:46;6.85;;;2.05;;
33900;SDS011;20193;49.810;6.418;2022-07-15T14:30:12;2.50;;;2.30;;
33900;SDS011;20193;49.810;6.418;2022-07-15T14:32:38;9.20;;;2.40;;
33900;SDS011;20193;49.810;6.418;2022-07-15T14:35:05;3.90;;;2.22;;
33900;SDS011;20193;49.810;6.418;2022-07-15T14:37:32;2.30;;;2.10;;
33900;SDS011;20193;49.810;6.418;2022-07-15T14:39:57;2.92;;;2.25;;
33900;SDS011;20193;49.810;6.418;2022-07-15T14:42:23;2.97;;;2.15;;
33900;SDS011;20193;49.810;6.418;2022-07-15T14:44:49;2.08;;;1.92;;
33900;SDS011;20193;49.810;6.418;2022-07-15T14:47:15;6.20;;;3.45;;
33900;SDS011;20193;49.810;6.418;2022-07-15T14:49:40;2.75;;;1.90;;
33900;SDS011;20193;49.810;6.418;2022-07-15T14:52:06;3.75;;;2.20;;
33900;SDS011;20193;49.810;6.418;2022-07-15T14:54:31;12.88;;;11.73;;
33900;SDS011;20193;49.810;6.418;2022-07-15T14:56:57;2.30;;;2.10;;
33900;SDS011;20193;49.810;6.418;2022-07-15T14:59:23;2.13;;;1.92;;
33900;SDS011;20193;49.810;6.418;2022-07-15T15:01:48;3.03;;;2.35;;
33900;SDS011;20193;49.810;6.418;2022-07-15T15:04:14;2.13;;;1.92;;
33900;SDS011;20193;49.810;6.418;2022-07-15T15:06:40;2.30;;;2.10;;
33900;SDS011;20193;49.810;6.418;2022-07-15T15:09:05;3.08;;;2.13;;
33900;SDS011;20193;49.810;6.418;2022-07-15T15:11:31;3.00;;;1.75;;
33900;SDS011;20193;49.810;6.418;2022-07-15T15:13:57;2.90;;;1.80;;
33900;SDS011;20193;49.810;6.418;2022-07-15T15:16:22;2.20;;;2.00;;
33900;SDS011;20193;49.810;6.418;2022-07-15T15:18:48;2.33;;;1.98;;
33900;SDS011;20193;49.810;6.418;2022-07-15T15:21:14;2.67;;;2.08;;
33900;SDS011;20193;49.810;6.418;2022-07-15T15:23:39;2.75;;;2.05;;
33900;SDS011;20193;49.810;6.418;2022-07-15T15:26:05;2.25;;;2.00;;
33900;SDS011;20193;49.810;6.418;2022-07-15T15:28:46;2.75;;;2.05;;
33900;SDS011;20193;49.810;6.418;2022-07-15T15:31:12;2.30;;;1.95;;
33900;SDS011;20193;49.810;6.418;2022-07-15T15:33:37;2.30;;;2.10;;
33900;SDS011;20193;49.810;6.418;2022-07-15T15:36:03;2.78;;;2.10;;
33900;SDS011;20193;49.810;6.418;2022-07-15T15:38:32;1.95;;;1.85;;
33900;SDS011;20193;49.810;6.418;2022-07-15T15:40:57;2.10;;;1.88;;
33900;SDS011;20193;49.810;6.418;2022-07-15T15:43:24;3.30;;;1.67;;